createdAt,value
2022-10-18T00:00:45.742Z,34.00
2022-10-18T00:06:00.978Z,39.60
2022-10-18T00:11:10.569Z,36.00
2022-10-18T00:16:17.759Z,37.80
2022-10-18T00:21:22.604Z,36.60
2022-10-18T00:26:29.345Z,44.80
2022-10-18T00:31:34.139Z,35.60
2022-10-18T00:36:35.930Z,41.40
2022-10-18T00:41:38.455Z,38.60
2022-10-18T00:46:43.462Z,44.50
2022-10-18T00:51:50.023Z,48.00
2022-10-18T00:56:52.210Z,35.30
2022-10-18T01:01:54.258Z,40.10
2022-10-18T01:07:08.012Z,41.60
2022-10-18T01:12:35.694Z,42.80
2022-10-18T01:18:16.440Z,43.90
2022-10-18T01:23:56.088Z,44.50
2022-10-18T01:29:35.317Z,49.80
2022-10-18T01:34:40.107Z,46.60
2022-10-18T01:39:45.852Z,46.60
2022-10-18T01:44:50.533Z,44.20
2022-10-18T01:49:59.481Z,48.30
2022-10-18T01:55:03.238Z,39.00
2022-10-18T02:00:19.292Z,36.90
2022-10-18T02:05:28.652Z,41.20
2022-10-18T02:10:38.896Z,34.40
2022-10-18T02:16:48.233Z,34.40
2022-10-18T02:21:51.782Z,40.80
2022-10-18T02:26:53.645Z,62.30
2022-10-18T02:32:12.282Z,40.60
2022-10-18T02:37:16.208Z,37.40
2022-10-18T02:42:18.291Z,37.20
2022-10-18T02:47:20.066Z,40.60
2022-10-18T02:52:21.760Z,37.80
2022-10-18T02:57:23.480Z,41.00
2022-10-18T03:02:26.108Z,36.90
2022-10-18T03:07:27.852Z,38.60
2022-10-18T03:12:29.865Z,36.60
2022-10-18T03:17:31.847Z,39.10
2022-10-18T03:22:34.342Z,39.70
2022-10-18T03:27:37.134Z,35.20
2022-10-18T03:32:39.903Z,37.20
2022-10-18T03:37:41.769Z,42.00
2022-10-18T03:42:43.692Z,34.50
2022-10-18T03:47:45.570Z,36.40
2022-10-18T03:52:47.484Z,42.90
2022-10-18T03:57:50.305Z,36.20
2022-10-18T04:02:55.017Z,30.00
2022-10-18T04:07:58.279Z,34.60
2022-10-18T04:13:00.065Z,36.40
2022-10-18T04:18:01.971Z,33.80
2022-10-18T04:23:03.777Z,31.80
2022-10-18T04:28:05.558Z,31.60
2022-10-18T04:33:07.291Z,31.40
2022-10-18T04:38:09.331Z,36.70
2022-10-18T04:43:11.454Z,40.90
2022-10-18T04:48:13.211Z,43.00
2022-10-18T04:53:21.083Z,56.10
2022-10-18T04:58:22.960Z,52.00
2022-10-18T05:03:24.739Z,47.80
2022-10-18T05:08:26.729Z,48.60
2022-10-18T05:13:29.499Z,51.70
2022-10-18T05:18:43.794Z,53.70
2022-10-18T05:23:45.501Z,44.00
2022-10-18T05:28:47.516Z,46.70
2022-10-18T05:33:49.339Z,45.20
2022-10-18T05:38:52.766Z,41.20
2022-10-18T05:43:54.631Z,55.50
2022-10-18T05:48:56.293Z,48.30
2022-10-18T05:53:58.838Z,49.30
2022-10-18T05:59:00.869Z,43.30
2022-10-18T06:04:02.550Z,42.30
2022-10-18T06:09:04.969Z,38.30
2022-10-18T06:14:08.325Z,41.90
2022-10-18T06:19:10.171Z,38.60
2022-10-18T06:24:11.916Z,44.30
2022-10-18T06:29:14.187Z,35.30
2022-10-18T06:34:16.186Z,32.70
2022-10-18T06:39:37.685Z,28.10
2022-10-18T06:44:53.080Z,38.10
2022-10-18T06:49:55.090Z,45.60
2022-10-18T06:54:58.040Z,32.30
2022-10-18T06:59:59.872Z,26.60
2022-10-18T07:05:01.574Z,29.40
2022-10-18T07:10:04.741Z,27.60
2022-10-18T07:15:11.031Z,26.40
2022-10-18T07:20:12.821Z,25.20
2022-10-18T07:25:14.696Z,28.80
2022-10-18T07:30:16.592Z,23.00
2022-10-18T07:35:18.583Z,19.40
2022-10-18T07:40:20.286Z,13.70
2022-10-18T07:45:22.216Z,18.40
2022-10-18T07:50:24.392Z,16.70
2022-10-18T07:55:26.325Z,19.90
2022-10-18T08:00:28.120Z,18.50
2022-10-18T08:05:30.266Z,20.40
2022-10-18T08:10:34.174Z,14.50
2022-10-18T08:15:36.070Z,12.60
2022-10-18T08:20:43.123Z,11.10
2022-10-18T08:25:44.904Z,18.10
2022-10-18T08:30:46.635Z,12.80
2022-10-18T08:35:59.750Z,14.20
2022-10-18T08:41:26.235Z,13.00
2022-10-18T08:46:28.720Z,15.80
2022-10-18T08:51:38.655Z,14.50
2022-10-18T08:56:45.460Z,11.10
2022-10-18T09:01:52.221Z,11.10
2022-10-18T09:07:16.698Z,19.30
2022-10-18T09:12:30.888Z,15.50
2022-10-18T09:17:51.734Z,16.40
2022-10-18T09:22:55.632Z,14.10
2022-10-18T09:28:14.993Z,12.70
2022-10-18T09:33:30.720Z,12.50
2022-10-18T09:38:41.499Z,12.70
2022-10-18T09:44:06.745Z,14.70
2022-10-18T09:49:17.028Z,12.10
2022-10-18T09:54:28.071Z,10.00
2022-10-18T09:59:47.963Z,13.90
2022-10-18T10:04:56.444Z,12.90
2022-10-18T10:10:06.450Z,12.10
2022-10-18T10:15:23.709Z,15.20
2022-10-18T10:20:50.034Z,12.50
2022-10-18T10:26:01.371Z,12.70
2022-10-18T10:31:29.915Z,9.50
2022-10-18T10:36:33.609Z,11.50
2022-10-18T10:41:35.723Z,15.70
2022-10-18T10:46:37.644Z,11.30
2022-10-18T10:51:40.344Z,16.80
2022-10-18T10:57:11.535Z,21.10
2022-10-18T11:02:19.106Z,14.20
2022-10-18T11:07:41.127Z,11.60
2022-10-18T11:12:49.355Z,9.10
2022-10-18T11:18:14.860Z,17.50
2022-10-18T11:23:18.333Z,13.80
2022-10-18T11:28:52.184Z,12.50
2022-10-18T11:34:09.352Z,10.80
2022-10-18T11:39:30.958Z,10.80
2022-10-18T11:44:46.309Z,12.80
2022-10-18T11:50:19.448Z,12.80
2022-10-18T11:55:39.849Z,15.80
2022-10-18T12:00:53.875Z,12.00
2022-10-18T12:05:58.290Z,12.30
2022-10-18T12:11:15.871Z,14.00
2022-10-18T12:16:38.836Z,14.80
2022-10-18T12:21:43.991Z,12.20
2022-10-18T12:26:48.677Z,15.60
2022-10-18T12:31:55.638Z,12.50
2022-10-18T12:37:35.028Z,13.30
2022-10-18T12:42:47.009Z,16.70
2022-10-18T12:47:48.789Z,13.00
2022-10-18T12:53:07.759Z,13.30
2022-10-18T12:58:15.674Z,13.60
2022-10-18T13:03:18.027Z,16.80
2022-10-18T13:08:44.705Z,20.40
2022-10-18T13:14:08.888Z,13.40
2022-10-18T13:19:40.428Z,16.70
2022-10-18T13:25:20.707Z,12.60
2022-10-18T13:30:47.336Z,15.00
2022-10-18T13:35:59.063Z,13.00
2022-10-18T13:41:28.329Z,16.20
2022-10-18T13:46:34.780Z,19.40
2022-10-18T13:51:50.169Z,14.00
2022-10-18T13:56:59.838Z,28.80
2022-10-18T14:02:50.557Z,22.50
2022-10-18T14:08:05.776Z,20.30
2022-10-18T14:13:21.163Z,11.70
2022-10-18T14:18:31.877Z,13.70
2022-10-18T14:23:37.822Z,17.10
2022-10-18T14:28:58.535Z,20.70
2022-10-18T14:34:02.772Z,18.50
2022-10-18T14:39:07.393Z,20.90
2022-10-18T14:44:29.694Z,17.30
2022-10-18T14:49:43.886Z,17.30
2022-10-18T14:54:46.636Z,15.90
2022-10-18T14:59:53.926Z,21.90
2022-10-18T15:05:17.552Z,20.00
2022-10-18T15:10:29.154Z,17.80
2022-10-18T15:15:33.665Z,23.90
2022-10-18T15:20:42.413Z,24.70
2022-10-18T15:25:44.696Z,21.40
2022-10-18T15:30:46.741Z,24.70
2022-10-18T15:35:49.143Z,19.10
2022-10-18T15:40:51.518Z,20.60
2022-10-18T15:46:03.247Z,19.30
2022-10-18T15:51:49.954Z,22.50
2022-10-18T15:56:51.921Z,22.60
2022-10-18T16:01:55.057Z,19.70
2022-10-18T16:06:58.002Z,139.40
2022-10-18T16:11:59.989Z,56.70
2022-10-18T16:17:05.006Z,31.30
2022-10-18T16:22:07.138Z,27.30
2022-10-18T16:27:10.717Z,26.40
2022-10-18T16:32:12.694Z,32.30
2022-10-18T16:37:14.530Z,42.10
2022-10-18T16:42:16.373Z,32.10
2022-10-18T16:47:19.145Z,35.10
2022-10-18T16:52:21.141Z,39.00
2022-10-18T16:57:23.154Z,25.90
2022-10-18T17:02:25.076Z,27.00
2022-10-18T17:07:26.901Z,34.90
2022-10-18T17:12:28.839Z,29.60
2022-10-18T17:17:31.469Z,24.30
2022-10-18T17:22:34.234Z,28.40
2022-10-18T17:27:36.215Z,27.20
2022-10-18T17:32:38.272Z,27.10
2022-10-18T17:37:44.070Z,27.90
2022-10-18T17:42:48.053Z,26.00
2022-10-18T17:47:50.074Z,28.20
2022-10-18T17:52:52.166Z,26.40
2022-10-18T17:57:54.130Z,30.10
2022-10-18T18:03:00.586Z,26.90
2022-10-18T18:08:04.138Z,28.70
2022-10-18T18:13:06.521Z,29.10
2022-10-18T18:18:08.397Z,29.00
2022-10-18T18:23:10.384Z,27.20
2022-10-18T18:28:12.268Z,33.50
2022-10-18T18:33:14.267Z,26.60
2022-10-18T18:38:16.060Z,30.00
2022-10-18T18:43:26.105Z,22.20
2022-10-18T18:48:31.222Z,24.20
2022-10-18T18:53:33.081Z,26.60
2022-10-18T18:58:36.986Z,13.80
2022-10-18T19:03:40.550Z,12.30
2022-10-18T19:08:46.338Z,13.30
2022-10-18T19:13:49.740Z,13.00
2022-10-18T19:19:12.516Z,11.70
2022-10-18T19:24:15.334Z,15.80
2022-10-18T19:29:35.715Z,13.60
2022-10-18T19:34:38.370Z,11.60
2022-10-18T19:39:41.067Z,12.00
2022-10-18T19:44:42.891Z,8.00
2022-10-18T19:49:44.814Z,10.20
2022-10-18T19:54:49.162Z,7.20
2022-10-18T19:59:51.281Z,7.00
2022-10-18T20:04:53.256Z,11.70
2022-10-18T20:09:57.548Z,10.30
2022-10-18T20:14:59.625Z,10.00
2022-10-18T20:20:01.397Z,11.60
2022-10-18T20:25:06.477Z,10.40
2022-10-18T20:30:11.380Z,12.10
2022-10-18T20:35:16.096Z,10.10
2022-10-18T20:40:18.086Z,10.90
2022-10-18T20:45:20.522Z,10.90
2022-10-18T20:50:22.473Z,9.90
2022-10-18T20:55:45.719Z,10.70
2022-10-18T21:00:47.867Z,9.50
2022-10-18T21:05:49.653Z,9.40
2022-10-18T21:11:01.107Z,10.90
2022-10-18T21:16:05.522Z,15.20
2022-10-18T21:21:23.029Z,9.60
2022-10-18T21:26:27.377Z,11.80
2022-10-18T21:31:52.727Z,12.60
2022-10-18T21:37:01.210Z,10.90
2022-10-18T21:42:03.389Z,16.00
2022-10-18T21:47:05.383Z,11.90
2022-10-18T21:52:07.298Z,13.90
2022-10-18T21:57:09.254Z,10.60
2022-10-18T22:02:11.010Z,12.00
2022-10-18T22:07:12.800Z,11.80
2022-10-18T22:12:14.563Z,12.90
2022-10-18T22:17:16.687Z,11.20
2022-10-18T22:22:18.489Z,10.50
2022-10-18T22:27:20.440Z,11.00
2022-10-18T22:32:22.374Z,11.80
2022-10-18T22:37:24.158Z,14.00
2022-10-18T22:42:26.292Z,13.80
2022-10-18T22:47:28.156Z,13.80
2022-10-18T22:52:30.112Z,16.40
2022-10-18T22:57:32.118Z,14.70
2022-10-18T23:02:53.723Z,15.90
2022-10-18T23:07:58.138Z,17.60
2022-10-18T23:12:59.998Z,19.50
2022-10-18T23:18:02.227Z,15.30
2022-10-18T23:23:04.241Z,14.80
2022-10-18T23:28:06.534Z,17.80
2022-10-18T23:33:08.376Z,15.10
2022-10-18T23:38:10.706Z,18.90
2022-10-18T23:43:12.705Z,16.10
2022-10-18T23:48:19.928Z,14.80
2022-10-18T23:53:22.828Z,19.80
2022-10-18T23:58:26.152Z,17.80
